Grafton Airport


Codes: YGFN/GFN
Name: Grafton Airport
City:
Country: Australia
Elevation: 110 ft.

Photos at Grafton Airport


   Photos courtesy of SpottingLog. You can add your own sightings and photos by signing up for a free trial today.



No photos found.

Weather at Grafton Airport


Time (UTC)DescriptionTempratureWindCloud coverageVisibilityPressureHumidity
13-Jun-2024 03:00Clear Sky18°C7 mph, S5%10000m1017hPa40%
13-Jun-2024 06:00Clear Sky18°C4 mph, S7%10000m1017hPa45%
13-Jun-2024 09:00Scattered Clouds13°C2 mph, S28%10000m1018hPa63%
13-Jun-2024 12:00Broken Clouds9°C4 mph, W59%10000m1020hPa78%
13-Jun-2024 15:00Broken Clouds8°C4 mph, W68%10000m1019hPa80%
13-Jun-2024 18:00Broken Clouds7°C4 mph, W58%10000m1019hPa81%
13-Jun-2024 21:00Overcast Clouds7°C4 mph, W87%10000m1020hPa80%
14-Jun-2024 00:00Broken Clouds16°C2 mph, W71%10000m1020hPa53%
14-Jun-2024 03:00Broken Clouds19°C2 mph, NW79%10000m1016hPa47%
14-Jun-2024 06:00Overcast Clouds17°C4 mph, E90%10000m1015hPa62%
14-Jun-2024 09:00Overcast Clouds12°C2 mph, S100%10000m1017hPa86%
14-Jun-2024 12:00Overcast Clouds13°C2 mph, W100%10000m1017hPa82%
14-Jun-2024 15:00Overcast Clouds13°C2 mph, W100%10000m1016hPa80%
14-Jun-2024 18:00Overcast Clouds12°C2 mph, W97%10000m1015hPa80%
14-Jun-2024 21:00Overcast Clouds12°C2 mph, W100%10000m1016hPa79%
15-Jun-2024 00:00Overcast Clouds17°C2 mph, W98%10000m1015hPa56%
15-Jun-2024 03:00Overcast Clouds20°C4 mph, W96%10000m1012hPa44%
15-Jun-2024 06:00Light Rain15°C7 mph, S97%10000m1012hPa70%
15-Jun-2024 09:00Scattered Clouds10°C2 mph, S45%10000m1013hPa93%
15-Jun-2024 12:00Scattered Clouds10°C4 mph, S32%10000m1015hPa89%
15-Jun-2024 15:00Broken Clouds11°C2 mph, W80%10000m1014hPa75%
15-Jun-2024 18:00Overcast Clouds12°C2 mph, SW90%10000m1014hPa73%
15-Jun-2024 21:00Overcast Clouds11°C2 mph, W95%10000m1015hPa73%
16-Jun-2024 00:00Overcast Clouds16°C2 mph, S88%10000m1016hPa54%
16-Jun-2024 03:00Broken Clouds18°C2 mph, SE73%10000m1014hPa50%
16-Jun-2024 06:00Overcast Clouds14°C2 mph, S85%10000m1014hPa68%
16-Jun-2024 09:00Overcast Clouds12°C4 mph, S93%10000m1016hPa74%
16-Jun-2024 12:00Overcast Clouds11°C4 mph, S92%10000m1017hPa72%
16-Jun-2024 15:00Light Rain11°C2 mph, S100%10000m1016hPa80%
16-Jun-2024 18:00Broken Clouds8°C2 mph, SW80%10000m1016hPa89%
16-Jun-2024 21:00Few Clouds7°C2 mph, SW11%10000m1017hPa92%
17-Jun-2024 00:00Clear Sky14°C4 mph, W8%10000m1017hPa58%
17-Jun-2024 03:00Clear Sky18°C2 mph, W1%10000m1014hPa35%
17-Jun-2024 06:00Clear Sky15°C2 mph, E1%10000m1014hPa49%
17-Jun-2024 09:00Clear Sky9°C2 mph, SW0%10000m1017hPa62%
17-Jun-2024 12:00Clear Sky7°C2 mph, SW0%10000m1018hPa68%
17-Jun-2024 15:00Clear Sky6°C2 mph, SW0%10000m1017hPa71%
17-Jun-2024 18:00Clear Sky4°C4 mph, W0%10000m1019hPa73%
17-Jun-2024 21:00Clear Sky4°C2 mph, W3%10000m1019hPa72%
18-Jun-2024 00:00Clear Sky13°C2 mph, W4%10000m1020hPa41%